sensor_id;sensor_type;location;lat;lon;timestamp;P1;durP1;ratioP1;P2;durP2;ratioP2
42904;SDS011;28550;51.228;4.528;2023-04-24T00:02:06;43.53;;;23.50;;
42904;SDS011;28550;51.228;4.528;2023-04-24T00:04:34;42.78;;;24.10;;
42904;SDS011;28550;51.228;4.528;2023-04-24T00:07:03;46.90;;;26.27;;
42904;SDS011;28550;51.228;4.528;2023-04-24T00:09:32;46.28;;;25.30;;
42904;SDS011;28550;51.228;4.528;2023-04-24T00:11:58;47.63;;;25.40;;
42904;SDS011;28550;51.228;4.528;2023-04-24T00:14:31;51.17;;;25.93;;
42904;SDS011;28550;51.228;4.528;2023-04-24T00:16:57;40.45;;;25.13;;
42904;SDS011;28550;51.228;4.528;2023-04-24T00:19:23;45.83;;;24.98;;
42904;SDS011;28550;51.228;4.528;2023-04-24T00:21:57;44.22;;;24.02;;
42904;SDS011;28550;51.228;4.528;2023-04-24T00:24:24;54.22;;;23.63;;
42904;SDS011;28550;51.228;4.528;2023-04-24T00:26:52;41.05;;;24.25;;
42904;SDS011;28550;51.228;4.528;2023-04-24T00:29:21;38.53;;;23.45;;
42904;SDS011;28550;51.228;4.528;2023-04-24T00:31:47;42.83;;;24.33;;
42904;SDS011;28550;51.228;4.528;2023-04-24T00:34:14;46.55;;;25.52;;
42904;SDS011;28550;51.228;4.528;2023-04-24T00:36:47;37.88;;;24.15;;
42904;SDS011;28550;51.228;4.528;2023-04-24T00:39:17;39.72;;;22.90;;
42904;SDS011;28550;51.228;4.528;2023-04-24T00:41:44;40.45;;;23.45;;
42904;SDS011;28550;51.228;4.528;2023-04-24T00:44:12;39.83;;;22.30;;
42904;SDS011;28550;51.228;4.528;2023-04-24T00:46:38;39.20;;;23.77;;
42904;SDS011;28550;51.228;4.528;2023-04-24T00:49:04;34.72;;;21.17;;
42904;SDS011;28550;51.228;4.528;2023-04-24T00:54:22;38.65;;;23.15;;
42904;SDS011;28550;51.228;4.528;2023-04-24T00:56:47;35.03;;;22.63;;
42904;SDS011;28550;51.228;4.528;2023-04-24T00:59:22;38.22;;;22.45;;
42904;SDS011;28550;51.228;4.528;2023-04-24T01:01:51;40.90;;;23.77;;
42904;SDS011;28550;51.228;4.528;2023-04-24T01:04:24;41.97;;;23.10;;
42904;SDS011;28550;51.228;4.528;2023-04-24T01:06:52;40.83;;;23.70;;
42904;SDS011;28550;51.228;4.528;2023-04-24T01:09:22;39.60;;;23.73;;
42904;SDS011;28550;51.228;4.528;2023-04-24T01:12:27;40.42;;;23.73;;
42904;SDS011;28550;51.228;4.528;2023-04-24T01:14:53;37.28;;;22.60;;
42904;SDS011;28550;51.228;4.528;2023-04-24T01:17:22;45.65;;;24.75;;
42904;SDS011;28550;51.228;4.528;2023-04-24T01:19:48;41.30;;;22.80;;
42904;SDS011;28550;51.228;4.528;2023-04-24T01:22:19;40.45;;;23.80;;
42904;SDS011;28550;51.228;4.528;2023-04-24T01:24:48;47.10;;;23.88;;
42904;SDS011;28550;51.228;4.528;2023-04-24T01:27:14;41.88;;;23.02;;
42904;SDS011;28550;51.228;4.528;2023-04-24T01:29:45;41.92;;;23.45;;
42904;SDS011;28550;51.228;4.528;2023-04-24T01:34:47;35.40;;;21.67;;
42904;SDS011;28550;51.228;4.528;2023-04-24T01:37:16;43.42;;;23.27;;
42904;SDS011;28550;51.228;4.528;2023-04-24T01:39:45;39.47;;;22.38;;
42904;SDS011;28550;51.228;4.528;2023-04-24T01:45:36;35.83;;;21.38;;
42904;SDS011;28550;51.228;4.528;2023-04-24T01:48:04;36.28;;;21.10;;
42904;SDS011;28550;51.228;4.528;2023-04-24T01:50:33;36.72;;;21.88;;
42904;SDS011;28550;51.228;4.528;2023-04-24T01:53:06;36.00;;;20.52;;
42904;SDS011;28550;51.228;4.528;2023-04-24T01:55:50;26.88;;;17.90;;
42904;SDS011;28550;51.228;4.528;2023-04-24T01:58:19;25.90;;;16.40;;
42904;SDS011;28550;51.228;4.528;2023-04-24T02:00:47;26.17;;;16.63;;
42904;SDS011;28550;51.228;4.528;2023-04-24T02:03:14;38.22;;;15.52;;
42904;SDS011;28550;51.228;4.528;2023-04-24T02:06:17;24.20;;;14.45;;
42904;SDS011;28550;51.228;4.528;2023-04-24T02:08:43;26.45;;;15.68;;
42904;SDS011;28550;51.228;4.528;2023-04-24T02:11:09;21.05;;;13.80;;
42904;SDS011;28550;51.228;4.528;2023-04-24T02:13:41;25.45;;;15.27;;
42904;SDS011;28550;51.228;4.528;2023-04-24T02:16:09;23.30;;;14.65;;
42904;SDS011;28550;51.228;4.528;2023-04-24T02:18:35;26.17;;;14.45;;
42904;SDS011;28550;51.228;4.528;2023-04-24T02:21:01;23.15;;;14.30;;
42904;SDS011;28550;51.228;4.528;2023-04-24T02:23:27;28.65;;;16.10;;
42904;SDS011;28550;51.228;4.528;2023-04-24T02:26:10;26.85;;;15.88;;
42904;SDS011;28550;51.228;4.528;2023-04-24T02:28:39;26.48;;;15.30;;
42904;SDS011;28550;51.228;4.528;2023-04-24T02:31:06;26.40;;;16.10;;
42904;SDS011;28550;51.228;4.528;2023-04-24T02:36:12;29.95;;;16.42;;
42904;SDS011;28550;51.228;4.528;2023-04-24T02:38:44;25.80;;;16.45;;
42904;SDS011;28550;51.228;4.528;2023-04-24T02:41:11;31.83;;;17.92;;
42904;SDS011;28550;51.228;4.528;2023-04-24T02:43:37;25.38;;;17.45;;
42904;SDS011;28550;51.228;4.528;2023-04-24T02:51:26;25.38;;;16.23;;
42904;SDS011;28550;51.228;4.528;2023-04-24T02:53:59;26.27;;;17.13;;
42904;SDS011;28550;51.228;4.528;2023-04-24T02:56:26;28.85;;;18.25;;
42904;SDS011;28550;51.228;4.528;2023-04-24T02:59:26;29.77;;;17.60;;
42904;SDS011;28550;51.228;4.528;2023-04-24T03:02:02;29.42;;;17.40;;
42904;SDS011;28550;51.228;4.528;2023-04-24T03:04:38;27.88;;;18.10;;
42904;SDS011;28550;51.228;4.528;2023-04-24T03:07:05;30.27;;;18.65;;
42904;SDS011;28550;51.228;4.528;2023-04-24T03:09:31;32.08;;;19.08;;
42904;SDS011;28550;51.228;4.528;2023-04-24T03:11:56;30.63;;;20.13;;
42904;SDS011;28550;51.228;4.528;2023-04-24T03:14:29;26.70;;;18.15;;
42904;SDS011;28550;51.228;4.528;2023-04-24T03:17:01;31.73;;;19.02;;
42904;SDS011;28550;51.228;4.528;2023-04-24T03:19:29;31.65;;;19.05;;
42904;SDS011;28550;51.228;4.528;2023-04-24T03:21:55;26.27;;;18.10;;
42904;SDS011;28550;51.228;4.528;2023-04-24T03:24:21;27.83;;;17.70;;
42904;SDS011;28550;51.228;4.528;2023-04-24T03:26:47;34.35;;;19.40;;
42904;SDS011;28550;51.228;4.528;2023-04-24T03:29:16;33.42;;;18.63;;
42904;SDS011;28550;51.228;4.528;2023-04-24T03:31:41;31.50;;;19.42;;
42904;SDS011;28550;51.228;4.528;2023-04-24T03:34:08;32.58;;;20.05;;
42904;SDS011;28550;51.228;4.528;2023-04-24T03:36:38;34.55;;;20.77;;
42904;SDS011;28550;51.228;4.528;2023-04-24T03:39:04;28.85;;;18.67;;
42904;SDS011;28550;51.228;4.528;2023-04-24T03:41:30;36.30;;;21.58;;
42904;SDS011;28550;51.228;4.528;2023-04-24T03:43:59;32.67;;;19.52;;
42904;SDS011;28550;51.228;4.528;2023-04-24T03:49:12;33.47;;;19.88;;
42904;SDS011;28550;51.228;4.528;2023-04-24T03:51:44;32.53;;;18.70;;
42904;SDS011;28550;51.228;4.528;2023-04-24T03:54:15;29.63;;;14.35;;
42904;SDS011;28550;51.228;4.528;2023-04-24T03:56:52;19.48;;;11.25;;
42904;SDS011;28550;51.228;4.528;2023-04-24T03:59:31;19.75;;;10.32;;
42904;SDS011;28550;51.228;4.528;2023-04-24T04:01:57;19.15;;;8.45;;
42904;SDS011;28550;51.228;4.528;2023-04-24T04:04:34;20.52;;;10.48;;
42904;SDS011;28550;51.228;4.528;2023-04-24T04:07:00;13.98;;;8.80;;
42904;SDS011;28550;51.228;4.528;2023-04-24T04:12:27;17.05;;;8.77;;
42904;SDS011;28550;51.228;4.528;2023-04-24T04:14:53;20.20;;;8.18;;
42904;SDS011;28550;51.228;4.528;2023-04-24T04:17:22;19.13;;;9.48;;
42904;SDS011;28550;51.228;4.528;2023-04-24T04:19:48;17.85;;;9.55;;
42904;SDS011;28550;51.228;4.528;2023-04-24T04:22:15;21.23;;;9.35;;
42904;SDS011;28550;51.228;4.528;2023-04-24T04:24:41;14.07;;;9.05;;
42904;SDS011;28550;51.228;4.528;2023-04-24T04:27:14;16.33;;;9.57;;
42904;SDS011;28550;51.228;4.528;2023-04-24T04:29:41;16.10;;;10.00;;
42904;SDS011;28550;51.228;4.528;2023-04-24T04:32:07;22.08;;;11.00;;
42904;SDS011;28550;51.228;4.528;2023-04-24T04:34:36;16.33;;;10.40;;
42904;SDS011;28550;51.228;4.528;2023-04-24T04:37:08;19.30;;;10.77;;
42904;SDS011;28550;51.228;4.528;2023-04-24T04:40:02;20.05;;;11.13;;
42904;SDS011;28550;51.228;4.528;2023-04-24T04:42:33;19.70;;;11.57;;
42904;SDS011;28550;51.228;4.528;2023-04-24T04:47:51;24.90;;;11.98;;
42904;SDS011;28550;51.228;4.528;2023-04-24T04:50:17;23.23;;;12.20;;
42904;SDS011;28550;51.228;4.528;2023-04-24T04:52:44;17.77;;;11.98;;
42904;SDS011;28550;51.228;4.528;2023-04-24T04:55:19;23.55;;;14.93;;
42904;SDS011;28550;51.228;4.528;2023-04-24T04:57:47;28.08;;;15.82;;
42904;SDS011;28550;51.228;4.528;2023-04-24T05:00:13;26.50;;;15.98;;
42904;SDS011;28550;51.228;4.528;2023-04-24T05:02:50;34.95;;;18.00;;
42904;SDS011;28550;51.228;4.528;2023-04-24T05:05:17;37.97;;;19.70;;
42904;SDS011;28550;51.228;4.528;2023-04-24T05:07:44;34.88;;;17.40;;
42904;SDS011;28550;51.228;4.528;2023-04-24T05:10:14;35.22;;;18.38;;
42904;SDS011;28550;51.228;4.528;2023-04-24T05:12:39;30.60;;;16.88;;
42904;SDS011;28550;51.228;4.528;2023-04-24T05:15:07;41.25;;;21.58;;
42904;SDS011;28550;51.228;4.528;2023-04-24T05:17:36;76.93;;;39.60;;
42904;SDS011;28550;51.228;4.528;2023-04-24T05:22:38;29.35;;;17.40;;
42904;SDS011;28550;51.228;4.528;2023-04-24T05:25:03;30.25;;;17.15;;
42904;SDS011;28550;51.228;4.528;2023-04-24T05:30:35;24.17;;;14.40;;
42904;SDS011;28550;51.228;4.528;2023-04-24T05:33:01;29.88;;;15.65;;
42904;SDS011;28550;51.228;4.528;2023-04-24T05:35:37;33.63;;;14.05;;
42904;SDS011;28550;51.228;4.528;2023-04-24T05:38:08;33.78;;;14.65;;
42904;SDS011;28550;51.228;4.528;2023-04-24T05:48:49;24.67;;;13.85;;
42904;SDS011;28550;51.228;4.528;2023-04-24T05:51:15;29.10;;;14.43;;
42904;SDS011;28550;51.228;4.528;2023-04-24T05:53:42;35.40;;;15.70;;
42904;SDS011;28550;51.228;4.528;2023-04-24T05:56:08;30.63;;;15.57;;
42904;SDS011;28550;51.228;4.528;2023-04-24T05:59:11;31.48;;;15.77;;
42904;SDS011;28550;51.228;4.528;2023-04-24T06:01:42;31.90;;;14.73;;
42904;SDS011;28550;51.228;4.528;2023-04-24T06:04:15;27.85;;;14.95;;
42904;SDS011;28550;51.228;4.528;2023-04-24T06:06:47;25.63;;;14.07;;
42904;SDS011;28550;51.228;4.528;2023-04-24T06:09:16;26.33;;;14.93;;
42904;SDS011;28550;51.228;4.528;2023-04-24T06:11:47;27.40;;;14.60;;
42904;SDS011;28550;51.228;4.528;2023-04-24T06:27:58;32.17;;;16.52;;
42904;SDS011;28550;51.228;4.528;2023-04-24T06:30:28;35.55;;;15.63;;
42904;SDS011;28550;51.228;4.528;2023-04-24T06:32:55;39.03;;;18.10;;
42904;SDS011;28550;51.228;4.528;2023-04-24T06:35:30;38.72;;;19.60;;
42904;SDS011;28550;51.228;4.528;2023-04-24T06:37:58;36.45;;;19.42;;
42904;SDS011;28550;51.228;4.528;2023-04-24T06:40:24;39.20;;;18.98;;
42904;SDS011;28550;51.228;4.528;2023-04-24T06:43:36;34.97;;;17.13;;
42904;SDS011;28550;51.228;4.528;2023-04-24T06:46:26;29.90;;;16.00;;
42904;SDS011;28550;51.228;4.528;2023-04-24T06:49:04;29.88;;;16.83;;
42904;SDS011;28550;51.228;4.528;2023-04-24T06:54:05;33.63;;;13.15;;
42904;SDS011;28550;51.228;4.528;2023-04-24T06:56:44;36.13;;;13.80;;
42904;SDS011;28550;51.228;4.528;2023-04-24T06:59:14;26.88;;;14.02;;
42904;SDS011;28550;51.228;4.528;2023-04-24T07:01:46;36.80;;;15.45;;
42904;SDS011;28550;51.228;4.528;2023-04-24T07:04:20;29.05;;;14.02;;
42904;SDS011;28550;51.228;4.528;2023-04-24T07:06:49;23.70;;;13.35;;
42904;SDS011;28550;51.228;4.528;2023-04-24T07:09:16;28.85;;;15.13;;
42904;SDS011;28550;51.228;4.528;2023-04-24T07:11:43;36.72;;;15.10;;
42904;SDS011;28550;51.228;4.528;2023-04-24T07:17:13;23.63;;;12.23;;
42904;SDS011;28550;51.228;4.528;2023-04-24T07:22:24;28.00;;;11.15;;
42904;SDS011;28550;51.228;4.528;2023-04-24T07:25:00;18.42;;;8.20;;
42904;SDS011;28550;51.228;4.528;2023-04-24T07:27:35;22.77;;;10.10;;
42904;SDS011;28550;51.228;4.528;2023-04-24T07:30:11;16.50;;;9.05;;
42904;SDS011;28550;51.228;4.528;2023-04-24T07:38:14;19.73;;;11.65;;
42904;SDS011;28550;51.228;4.528;2023-04-24T07:40:39;30.17;;;13.63;;
42904;SDS011;28550;51.228;4.528;2023-04-24T07:43:05;25.95;;;8.38;;
42904;SDS011;28550;51.228;4.528;2023-04-24T07:45:31;16.80;;;6.68;;
42904;SDS011;28550;51.228;4.528;2023-04-24T07:48:02;18.38;;;7.47;;
42904;SDS011;28550;51.228;4.528;2023-04-24T07:50:35;14.95;;;8.60;;
42904;SDS011;28550;51.228;4.528;2023-04-24T07:55:39;23.13;;;7.32;;
42904;SDS011;28550;51.228;4.528;2023-04-24T07:58:08;20.48;;;6.10;;
42904;SDS011;28550;51.228;4.528;2023-04-24T08:06:48;16.60;;;6.00;;
42904;SDS011;28550;51.228;4.528;2023-04-24T08:09:17;17.17;;;6.60;;
42904;SDS011;28550;51.228;4.528;2023-04-24T08:11:48;20.08;;;7.20;;
42904;SDS011;28550;51.228;4.528;2023-04-24T08:17:00;19.00;;;7.28;;
42904;SDS011;28550;51.228;4.528;2023-04-24T08:25:24;17.05;;;7.18;;
42904;SDS011;28550;51.228;4.528;2023-04-24T08:27:54;20.05;;;6.55;;
42904;SDS011;28550;51.228;4.528;2023-04-24T08:30:22;16.55;;;6.00;;
42904;SDS011;28550;51.228;4.528;2023-04-24T08:32:57;25.55;;;6.90;;
42904;SDS011;28550;51.228;4.528;2023-04-24T08:35:32;16.10;;;6.88;;
42904;SDS011;28550;51.228;4.528;2023-04-24T08:38:19;14.95;;;6.32;;
42904;SDS011;28550;51.228;4.528;2023-04-24T08:40:47;22.60;;;7.00;;
42904;SDS011;28550;51.228;4.528;2023-04-24T08:49:03;24.83;;;7.00;;
42904;SDS011;28550;51.228;4.528;2023-04-24T08:55:03;20.33;;;4.90;;
42904;SDS011;28550;51.228;4.528;2023-04-24T09:00:24;14.35;;;6.03;;
42904;SDS011;28550;51.228;4.528;2023-04-24T09:03:02;20.27;;;5.78;;
42904;SDS011;28550;51.228;4.528;2023-04-24T09:05:38;17.23;;;7.03;;
42904;SDS011;28550;51.228;4.528;2023-04-24T09:13:48;10.88;;;5.03;;
42904;SDS011;28550;51.228;4.528;2023-04-24T09:16:16;16.02;;;6.22;;
42904;SDS011;28550;51.228;4.528;2023-04-24T09:25:21;15.80;;;5.45;;
42904;SDS011;28550;51.228;4.528;2023-04-24T09:27:58;14.90;;;4.80;;
42904;SDS011;28550;51.228;4.528;2023-04-24T09:33:32;11.52;;;5.10;;
42904;SDS011;28550;51.228;4.528;2023-04-24T09:40:06;16.48;;;4.97;;
42904;SDS011;28550;51.228;4.528;2023-04-24T09:49:16;12.45;;;4.28;;
42904;SDS011;28550;51.228;4.528;2023-04-24T09:52:17;13.10;;;4.55;;
42904;SDS011;28550;51.228;4.528;2023-04-24T09:58:07;8.98;;;4.68;;
42904;SDS011;28550;51.228;4.528;2023-04-24T10:01:03;11.43;;;4.13;;
42904;SDS011;28550;51.228;4.528;2023-04-24T10:09:28;15.93;;;4.55;;
42904;SDS011;28550;51.228;4.528;2023-04-24T10:12:02;13.48;;;4.03;;
42904;SDS011;28550;51.228;4.528;2023-04-24T10:14:30;12.63;;;4.30;;
42904;SDS011;28550;51.228;4.528;2023-04-24T10:16:56;16.25;;;5.03;;
42904;SDS011;28550;51.228;4.528;2023-04-24T10:19:25;9.13;;;3.55;;
42904;SDS011;28550;51.228;4.528;2023-04-24T10:21:52;13.00;;;4.50;;
42904;SDS011;28550;51.228;4.528;2023-04-24T10:24:21;7.72;;;3.30;;
42904;SDS011;28550;51.228;4.528;2023-04-24T10:26:47;14.80;;;5.35;;
42904;SDS011;28550;51.228;4.528;2023-04-24T10:29:17;13.90;;;3.78;;
42904;SDS011;28550;51.228;4.528;2023-04-24T10:31:50;7.78;;;3.60;;
42904;SDS011;28550;51.228;4.528;2023-04-24T10:34:19;9.38;;;3.97;;
42904;SDS011;28550;51.228;4.528;2023-04-24T10:36:57;9.40;;;3.67;;
42904;SDS011;28550;51.228;4.528;2023-04-24T10:39:23;7.10;;;2.92;;
42904;SDS011;28550;51.228;4.528;2023-04-24T10:41:50;9.85;;;3.58;;
42904;SDS011;28550;51.228;4.528;2023-04-24T10:44:16;8.13;;;3.05;;
42904;SDS011;28550;51.228;4.528;2023-04-24T10:46:43;8.88;;;2.70;;
42904;SDS011;28550;51.228;4.528;2023-04-24T10:52:01;6.93;;;2.97;;
42904;SDS011;28550;51.228;4.528;2023-04-24T10:57:39;15.13;;;3.45;;
42904;SDS011;28550;51.228;4.528;2023-04-24T11:00:26;8.63;;;3.67;;
42904;SDS011;28550;51.228;4.528;2023-04-24T11:06:35;9.95;;;3.10;;
42904;SDS011;28550;51.228;4.528;2023-04-24T11:09:02;5.07;;;2.33;;
42904;SDS011;28550;51.228;4.528;2023-04-24T11:11:32;6.97;;;2.30;;
42904;SDS011;28550;51.228;4.528;2023-04-24T11:16:45;6.38;;;2.40;;
42904;SDS011;28550;51.228;4.528;2023-04-24T11:19:18;6.65;;;2.53;;
42904;SDS011;28550;51.228;4.528;2023-04-24T11:22:00;9.82;;;2.53;;
42904;SDS011;28550;51.228;4.528;2023-04-24T11:24:49;7.10;;;2.35;;
42904;SDS011;28550;51.228;4.528;2023-04-24T11:27:20;4.50;;;2.42;;
42904;SDS011;28550;51.228;4.528;2023-04-24T11:42:50;5.80;;;2.63;;
42904;SDS011;28550;51.228;4.528;2023-04-24T12:10:12;8.00;;;2.97;;
42904;SDS011;28550;51.228;4.528;2023-04-24T12:23:12;9.98;;;3.97;;
42904;SDS011;28550;51.228;4.528;2023-04-24T12:25:46;9.02;;;3.30;;
42904;SDS011;28550;51.228;4.528;2023-04-24T12:28:22;9.23;;;2.67;;
42904;SDS011;28550;51.228;4.528;2023-04-24T12:31:18;5.90;;;2.65;;
42904;SDS011;28550;51.228;4.528;2023-04-24T12:36:26;6.85;;;3.20;;
42904;SDS011;28550;51.228;4.528;2023-04-24T12:45:03;5.95;;;3.00;;
42904;SDS011;28550;51.228;4.528;2023-04-24T12:47:34;5.38;;;2.28;;
42904;SDS011;28550;51.228;4.528;2023-04-24T13:06:42;3.60;;;2.10;;
42904;SDS011;28550;51.228;4.528;2023-04-24T13:17:33;3.47;;;1.98;;
42904;SDS011;28550;51.228;4.528;2023-04-24T13:19:58;4.65;;;1.83;;
42904;SDS011;28550;51.228;4.528;2023-04-24T13:22:24;3.55;;;2.08;;
42904;SDS011;28550;51.228;4.528;2023-04-24T13:24:54;5.32;;;2.65;;
42904;SDS011;28550;51.228;4.528;2023-04-24T13:27:21;9.05;;;2.60;;
42904;SDS011;28550;51.228;4.528;2023-04-24T13:29:48;6.50;;;2.83;;
42904;SDS011;28550;51.228;4.528;2023-04-24T13:40:27;3.72;;;1.85;;
42904;SDS011;28550;51.228;4.528;2023-04-24T13:48:03;5.55;;;2.17;;
42904;SDS011;28550;51.228;4.528;2023-04-24T13:50:42;6.55;;;2.95;;
42904;SDS011;28550;51.228;4.528;2023-04-24T13:53:16;3.47;;;2.40;;
42904;SDS011;28550;51.228;4.528;2023-04-24T13:59:04;4.70;;;2.33;;
42904;SDS011;28550;51.228;4.528;2023-04-24T14:04:05;6.57;;;2.08;;
42904;SDS011;28550;51.228;4.528;2023-04-24T14:09:25;4.57;;;2.08;;
42904;SDS011;28550;51.228;4.528;2023-04-24T14:14:47;5.72;;;2.30;;
42904;SDS011;28550;51.228;4.528;2023-04-24T14:17:15;6.72;;;2.58;;
42904;SDS011;28550;51.228;4.528;2023-04-24T14:19:44;5.68;;;2.60;;
42904;SDS011;28550;51.228;4.528;2023-04-24T14:22:11;8.02;;;2.60;;
42904;SDS011;28550;51.228;4.528;2023-04-24T14:24:36;9.45;;;2.83;;
42904;SDS011;28550;51.228;4.528;2023-04-24T14:27:02;7.45;;;2.40;;
42904;SDS011;28550;51.228;4.528;2023-04-24T14:29:29;7.28;;;2.42;;
42904;SDS011;28550;51.228;4.528;2023-04-24T14:31:55;4.78;;;2.55;;
42904;SDS011;28550;51.228;4.528;2023-04-24T14:34:42;5.22;;;2.33;;
42904;SDS011;28550;51.228;4.528;2023-04-24T14:37:09;4.85;;;2.83;;
42904;SDS011;28550;51.228;4.528;2023-04-24T14:39:55;6.40;;;2.28;;
42904;SDS011;28550;51.228;4.528;2023-04-24T14:42:21;6.63;;;2.42;;
42904;SDS011;28550;51.228;4.528;2023-04-24T14:44:47;9.63;;;3.13;;
42904;SDS011;28550;51.228;4.528;2023-04-24T14:47:17;4.97;;;3.00;;
42904;SDS011;28550;51.228;4.528;2023-04-24T14:49:46;8.60;;;3.75;;
42904;SDS011;28550;51.228;4.528;2023-04-24T14:52:13;7.15;;;3.33;;
42904;SDS011;28550;51.228;4.528;2023-04-24T14:54:41;11.35;;;4.03;;
42904;SDS011;28550;51.228;4.528;2023-04-24T14:57:10;10.55;;;3.83;;
42904;SDS011;28550;51.228;4.528;2023-04-24T14:59:36;7.05;;;3.60;;
42904;SDS011;28550;51.228;4.528;2023-04-24T15:02:08;8.85;;;4.07;;
42904;SDS011;28550;51.228;4.528;2023-04-24T15:04:37;7.75;;;4.05;;
42904;SDS011;28550;51.228;4.528;2023-04-24T15:10:09;7.07;;;3.80;;
42904;SDS011;28550;51.228;4.528;2023-04-24T15:12:35;7.70;;;3.22;;
42904;SDS011;28550;51.228;4.528;2023-04-24T15:15:01;5.03;;;3.25;;
42904;SDS011;28550;51.228;4.528;2023-04-24T15:17:29;5.15;;;2.72;;
42904;SDS011;28550;51.228;4.528;2023-04-24T15:19:59;4.55;;;2.42;;
42904;SDS011;28550;51.228;4.528;2023-04-24T15:22:26;6.93;;;3.28;;
42904;SDS011;28550;51.228;4.528;2023-04-24T15:24:51;9.02;;;3.90;;
42904;SDS011;28550;51.228;4.528;2023-04-24T15:27:42;9.18;;;3.67;;
42904;SDS011;28550;51.228;4.528;2023-04-24T15:30:09;7.55;;;3.55;;
42904;SDS011;28550;51.228;4.528;2023-04-24T15:32:48;4.18;;;3.45;;
42904;SDS011;28550;51.228;4.528;2023-04-24T15:35:16;7.85;;;4.72;;
42904;SDS011;28550;51.228;4.528;2023-04-24T15:37:45;11.00;;;4.40;;
42904;SDS011;28550;51.228;4.528;2023-04-24T15:40:23;7.65;;;4.78;;
42904;SDS011;28550;51.228;4.528;2023-04-24T15:43:00;9.52;;;4.90;;
42904;SDS011;28550;51.228;4.528;2023-04-24T15:45:26;9.48;;;4.63;;
42904;SDS011;28550;51.228;4.528;2023-04-24T15:47:52;8.20;;;4.97;;
42904;SDS011;28550;51.228;4.528;2023-04-24T15:50:17;10.80;;;4.82;;
42904;SDS011;28550;51.228;4.528;2023-04-24T15:52:58;9.75;;;4.72;;
42904;SDS011;28550;51.228;4.528;2023-04-24T15:58:29;10.55;;;5.68;;
42904;SDS011;28550;51.228;4.528;2023-04-24T16:03:50;8.20;;;3.97;;
42904;SDS011;28550;51.228;4.528;2023-04-24T16:06:17;9.57;;;5.18;;
42904;SDS011;28550;51.228;4.528;2023-04-24T16:09:04;13.23;;;5.60;;
42904;SDS011;28550;51.228;4.528;2023-04-24T16:11:30;14.38;;;9.45;;
42904;SDS011;28550;51.228;4.528;2023-04-24T16:17:01;9.75;;;7.25;;
42904;SDS011;28550;51.228;4.528;2023-04-24T16:19:32;11.15;;;5.85;;
42904;SDS011;28550;51.228;4.528;2023-04-24T16:21:59;10.07;;;5.20;;
42904;SDS011;28550;51.228;4.528;2023-04-24T16:24:33;13.07;;;5.70;;
42904;SDS011;28550;51.228;4.528;2023-04-24T16:27:05;11.82;;;5.75;;
42904;SDS011;28550;51.228;4.528;2023-04-24T16:29:33;10.65;;;5.90;;
42904;SDS011;28550;51.228;4.528;2023-04-24T16:34:35;12.60;;;6.72;;
42904;SDS011;28550;51.228;4.528;2023-04-24T16:37:03;24.20;;;12.60;;
42904;SDS011;28550;51.228;4.528;2023-04-24T16:39:30;15.18;;;6.75;;
42904;SDS011;28550;51.228;4.528;2023-04-24T16:41:55;12.30;;;5.43;;
42904;SDS011;28550;51.228;4.528;2023-04-24T16:44:22;11.10;;;7.93;;
42904;SDS011;28550;51.228;4.528;2023-04-24T16:46:51;12.40;;;6.53;;
42904;SDS011;28550;51.228;4.528;2023-04-24T16:49:17;7.55;;;6.85;;
42904;SDS011;28550;51.228;4.528;2023-04-24T16:51:43;14.32;;;4.75;;
42904;SDS011;28550;51.228;4.528;2023-04-24T16:54:19;8.75;;;4.78;;
42904;SDS011;28550;51.228;4.528;2023-04-24T16:56:45;11.20;;;4.70;;
42904;SDS011;28550;51.228;4.528;2023-04-24T16:59:24;5.82;;;3.83;;
42904;SDS011;28550;51.228;4.528;2023-04-24T17:01:50;10.45;;;3.92;;
42904;SDS011;28550;51.228;4.528;2023-04-24T17:04:22;11.27;;;4.50;;
42904;SDS011;28550;51.228;4.528;2023-04-24T17:06:51;11.98;;;4.97;;
42904;SDS011;28550;51.228;4.528;2023-04-24T17:09:18;8.18;;;4.30;;
42904;SDS011;28550;51.228;4.528;2023-04-24T17:11:47;8.93;;;4.55;;
42904;SDS011;28550;51.228;4.528;2023-04-24T17:14:41;12.20;;;3.58;;
42904;SDS011;28550;51.228;4.528;2023-04-24T17:17:07;8.27;;;5.32;;
42904;SDS011;28550;51.228;4.528;2023-04-24T17:19:45;10.63;;;4.57;;
42904;SDS011;28550;51.228;4.528;2023-04-24T17:22:10;8.32;;;4.53;;
42904;SDS011;28550;51.228;4.528;2023-04-24T17:24:38;10.63;;;4.25;;
42904;SDS011;28550;51.228;4.528;2023-04-24T17:27:04;11.05;;;5.07;;
42904;SDS011;28550;51.228;4.528;2023-04-24T17:29:34;12.07;;;5.10;;
42904;SDS011;28550;51.228;4.528;2023-04-24T17:32:03;13.52;;;5.38;;
42904;SDS011;28550;51.228;4.528;2023-04-24T17:34:38;13.45;;;5.97;;
42904;SDS011;28550;51.228;4.528;2023-04-24T17:37:04;17.85;;;6.32;;
42904;SDS011;28550;51.228;4.528;2023-04-24T17:39:30;13.50;;;5.40;;
42904;SDS011;28550;51.228;4.528;2023-04-24T17:41:59;10.48;;;4.95;;
42904;SDS011;28550;51.228;4.528;2023-04-24T17:44:35;12.75;;;5.68;;
42904;SDS011;28550;51.228;4.528;2023-04-24T17:47:01;13.43;;;5.53;;
42904;SDS011;28550;51.228;4.528;2023-04-24T17:49:28;11.75;;;4.90;;
42904;SDS011;28550;51.228;4.528;2023-04-24T17:52:07;8.25;;;4.20;;
42904;SDS011;28550;51.228;4.528;2023-04-24T17:54:34;8.57;;;4.75;;
42904;SDS011;28550;51.228;4.528;2023-04-24T17:57:00;6.57;;;4.93;;
42904;SDS011;28550;51.228;4.528;2023-04-24T17:59:41;12.25;;;4.78;;
42904;SDS011;28550;51.228;4.528;2023-04-24T18:02:06;9.10;;;4.93;;
42904;SDS011;28550;51.228;4.528;2023-04-24T18:04:32;20.73;;;5.35;;
42904;SDS011;28550;51.228;4.528;2023-04-24T18:06:58;12.85;;;5.80;;
42904;SDS011;28550;51.228;4.528;2023-04-24T18:09:24;11.27;;;4.93;;
42904;SDS011;28550;51.228;4.528;2023-04-24T18:12:00;13.18;;;5.38;;
42904;SDS011;28550;51.228;4.528;2023-04-24T18:14:25;15.05;;;5.03;;
42904;SDS011;28550;51.228;4.528;2023-04-24T18:16:53;10.45;;;4.43;;
42904;SDS011;28550;51.228;4.528;2023-04-24T18:19:22;22.70;;;8.90;;
42904;SDS011;28550;51.228;4.528;2023-04-24T18:21:49;80.63;;;32.42;;
42904;SDS011;28550;51.228;4.528;2023-04-24T18:24:14;42.60;;;18.02;;
42904;SDS011;28550;51.228;4.528;2023-04-24T18:26:42;7.60;;;4.60;;
42904;SDS011;28550;51.228;4.528;2023-04-24T18:29:08;11.30;;;6.05;;
42904;SDS011;28550;51.228;4.528;2023-04-24T18:31:34;12.10;;;5.28;;
42904;SDS011;28550;51.228;4.528;2023-04-24T18:33:59;13.63;;;5.22;;
42904;SDS011;28550;51.228;4.528;2023-04-24T18:36:25;15.30;;;5.22;;
42904;SDS011;28550;51.228;4.528;2023-04-24T18:38:51;13.02;;;5.68;;
42904;SDS011;28550;51.228;4.528;2023-04-24T18:41:17;11.15;;;5.40;;
42904;SDS011;28550;51.228;4.528;2023-04-24T18:43:44;12.05;;;5.40;;
42904;SDS011;28550;51.228;4.528;2023-04-24T18:46:11;20.10;;;7.50;;
42904;SDS011;28550;51.228;4.528;2023-04-24T18:48:40;36.10;;;16.55;;
42904;SDS011;28550;51.228;4.528;2023-04-24T18:51:05;72.97;;;31.25;;
42904;SDS011;28550;51.228;4.528;2023-04-24T18:53:32;20.98;;;12.48;;
42904;SDS011;28550;51.228;4.528;2023-04-24T18:55:58;18.75;;;9.68;;
42904;SDS011;28550;51.228;4.528;2023-04-24T18:58:33;19.75;;;8.52;;
42904;SDS011;28550;51.228;4.528;2023-04-24T19:01:00;19.80;;;9.43;;
42904;SDS011;28550;51.228;4.528;2023-04-24T19:03:38;17.60;;;8.20;;
42904;SDS011;28550;51.228;4.528;2023-04-24T19:06:04;19.25;;;8.20;;
42904;SDS011;28550;51.228;4.528;2023-04-24T19:08:38;17.42;;;6.93;;
42904;SDS011;28550;51.228;4.528;2023-04-24T19:11:06;21.00;;;7.97;;
42904;SDS011;28550;51.228;4.528;2023-04-24T19:13:41;17.98;;;6.47;;
42904;SDS011;28550;51.228;4.528;2023-04-24T19:16:13;20.15;;;7.47;;
42904;SDS011;28550;51.228;4.528;2023-04-24T19:18:43;16.85;;;7.05;;